sensor_id;sensor_type;location;lat;lon;timestamp;temperature;humidity
51793;DHT22;37850;53.178;6.376;2023-09-18T00:00:24;16.80;99.90
51793;DHT22;37850;53.178;6.376;2023-09-18T00:02:50;16.80;99.90
51793;DHT22;37850;53.178;6.376;2023-09-18T00:05:16;16.80;99.90
51793;DHT22;37850;53.178;6.376;2023-09-18T00:07:43;16.80;99.90
51793;DHT22;37850;53.178;6.376;2023-09-18T00:10:11;16.80;99.90
51793;DHT22;37850;53.178;6.376;2023-09-18T00:12:38;16.80;99.90
51793;DHT22;37850;53.178;6.376;2023-09-18T00:15:05;16.80;99.90
51793;DHT22;37850;53.178;6.376;2023-09-18T00:17:31;16.80;99.90
51793;DHT22;37850;53.178;6.376;2023-09-18T00:19:57;16.80;99.90
51793;DHT22;37850;53.178;6.376;2023-09-18T00:22:22;16.80;99.90
51793;DHT22;37850;53.178;6.376;2023-09-18T00:24:50;16.80;99.90
51793;DHT22;37850;53.178;6.376;2023-09-18T00:27:15;16.80;99.90
51793;DHT22;37850;53.178;6.376;2023-09-18T00:29:42;16.80;99.90
51793;DHT22;37850;53.178;6.376;2023-09-18T00:32:08;16.70;99.90
51793;DHT22;37850;53.178;6.376;2023-09-18T00:34:34;16.70;99.90
51793;DHT22;37850;53.178;6.376;2023-09-18T00:37:00;16.70;99.90
51793;DHT22;37850;53.178;6.376;2023-09-18T00:39:26;16.70;99.90
51793;DHT22;37850;53.178;6.376;2023-09-18T00:41:52;16.70;99.90
51793;DHT22;37850;53.178;6.376;2023-09-18T00:44:20;16.70;99.90
51793;DHT22;37850;53.178;6.376;2023-09-18T00:46:47;16.70;99.90
51793;DHT22;37850;53.178;6.376;2023-09-18T00:49:14;16.70;99.90
51793;DHT22;37850;53.178;6.376;2023-09-18T00:51:40;16.70;99.90
51793;DHT22;37850;53.178;6.376;2023-09-18T00:54:07;16.70;99.90
51793;DHT22;37850;53.178;6.376;2023-09-18T00:56:34;16.70;99.90
51793;DHT22;37850;53.178;6.376;2023-09-18T00:59:00;16.70;99.90
51793;DHT22;37850;53.178;6.376;2023-09-18T01:01:28;16.70;99.90
51793;DHT22;37850;53.178;6.376;2023-09-18T01:03:56;16.70;99.90
51793;DHT22;37850;53.178;6.376;2023-09-18T01:06:24;16.70;99.90
51793;DHT22;37850;53.178;6.376;2023-09-18T01:08:53;16.70;99.90
51793;DHT22;37850;53.178;6.376;2023-09-18T01:11:30;16.70;99.90
51793;DHT22;37850;53.178;6.376;2023-09-18T01:16:44;16.70;99.90
51793;DHT22;37850;53.178;6.376;2023-09-18T01:19:15;16.80;99.90
51793;DHT22;37850;53.178;6.376;2023-09-18T01:21:41;16.70;99.90
51793;DHT22;37850;53.178;6.376;2023-09-18T01:24:07;16.80;99.90
51793;DHT22;37850;53.178;6.376;2023-09-18T01:26:32;16.70;99.90
51793;DHT22;37850;53.178;6.376;2023-09-18T01:28:58;16.80;99.90
51793;DHT22;37850;53.178;6.376;2023-09-18T01:31:24;16.80;99.90
51793;DHT22;37850;53.178;6.376;2023-09-18T01:33:52;16.80;99.90
51793;DHT22;37850;53.178;6.376;2023-09-18T01:36:20;16.70;99.90
51793;DHT22;37850;53.178;6.376;2023-09-18T01:38:46;16.80;99.90
51793;DHT22;37850;53.178;6.376;2023-09-18T01:41:12;16.80;99.90
51793;DHT22;37850;53.178;6.376;2023-09-18T01:43:38;16.80;99.90
51793;DHT22;37850;53.178;6.376;2023-09-18T01:46:05;16.70;99.90
51793;DHT22;37850;53.178;6.376;2023-09-18T01:48:30;16.80;99.90
51793;DHT22;37850;53.178;6.376;2023-09-18T01:50:56;16.80;99.90
51793;DHT22;37850;53.178;6.376;2023-09-18T01:53:22;16.80;99.90
51793;DHT22;37850;53.178;6.376;2023-09-18T01:55:47;16.80;99.90
51793;DHT22;37850;53.178;6.376;2023-09-18T01:58:13;16.80;99.90
51793;DHT22;37850;53.178;6.376;2023-09-18T02:00:40;16.80;99.90
51793;DHT22;37850;53.178;6.376;2023-09-18T02:03:05;16.80;99.90
51793;DHT22;37850;53.178;6.376;2023-09-18T02:05:31;16.80;99.90
51793;DHT22;37850;53.178;6.376;2023-09-18T02:07:58;16.70;99.90
51793;DHT22;37850;53.178;6.376;2023-09-18T02:10:23;16.80;99.90
51793;DHT22;37850;53.178;6.376;2023-09-18T02:12:49;16.80;99.90
51793;DHT22;37850;53.178;6.376;2023-09-18T02:15:15;16.80;99.90
51793;DHT22;37850;53.178;6.376;2023-09-18T02:17:42;16.80;99.90
51793;DHT22;37850;53.178;6.376;2023-09-18T02:20:08;16.80;99.90
51793;DHT22;37850;53.178;6.376;2023-09-18T02:22:37;16.80;99.90
51793;DHT22;37850;53.178;6.376;2023-09-18T02:25:05;16.80;99.90
51793;DHT22;37850;53.178;6.376;2023-09-18T02:27:31;16.80;99.90
51793;DHT22;37850;53.178;6.376;2023-09-18T02:29:57;16.80;99.90
51793;DHT22;37850;53.178;6.376;2023-09-18T02:32:26;16.80;99.90
51793;DHT22;37850;53.178;6.376;2023-09-18T02:34:52;16.80;99.90
51793;DHT22;37850;53.178;6.376;2023-09-18T02:37:17;16.80;99.90
51793;DHT22;37850;53.178;6.376;2023-09-18T02:39:43;16.80;99.90
51793;DHT22;37850;53.178;6.376;2023-09-18T02:42:09;16.90;99.90
51793;DHT22;37850;53.178;6.376;2023-09-18T02:44:34;16.80;99.90
51793;DHT22;37850;53.178;6.376;2023-09-18T02:47:01;16.80;99.90
51793;DHT22;37850;53.178;6.376;2023-09-18T02:49:26;16.80;99.90
51793;DHT22;37850;53.178;6.376;2023-09-18T02:51:52;16.90;99.90
51793;DHT22;37850;53.178;6.376;2023-09-18T02:54:18;16.90;99.90
51793;DHT22;37850;53.178;6.376;2023-09-18T02:56:43;16.90;99.90
51793;DHT22;37850;53.178;6.376;2023-09-18T02:59:09;16.90;99.90
51793;DHT22;37850;53.178;6.376;2023-09-18T03:01:35;16.90;99.90
51793;DHT22;37850;53.178;6.376;2023-09-18T03:04:01;16.90;99.90
51793;DHT22;37850;53.178;6.376;2023-09-18T03:06:26;16.90;99.90
51793;DHT22;37850;53.178;6.376;2023-09-18T03:08:52;16.90;99.90
51793;DHT22;37850;53.178;6.376;2023-09-18T03:11:18;16.90;99.90
51793;DHT22;37850;53.178;6.376;2023-09-18T03:13:45;16.90;99.90
51793;DHT22;37850;53.178;6.376;2023-09-18T03:16:12;16.90;99.90
51793;DHT22;37850;53.178;6.376;2023-09-18T03:18:40;16.90;99.90
51793;DHT22;37850;53.178;6.376;2023-09-18T03:21:06;16.90;99.90
51793;DHT22;37850;53.178;6.376;2023-09-18T03:23:32;17.00;99.90
51793;DHT22;37850;53.178;6.376;2023-09-18T03:25:57;16.90;99.90
51793;DHT22;37850;53.178;6.376;2023-09-18T03:28:25;17.00;99.90
51793;DHT22;37850;53.178;6.376;2023-09-18T03:30:50;16.90;99.90
51793;DHT22;37850;53.178;6.376;2023-09-18T03:33:17;17.00;99.90
51793;DHT22;37850;53.178;6.376;2023-09-18T03:35:49;17.00;99.90
51793;DHT22;37850;53.178;6.376;2023-09-18T03:38:15;17.00;99.90
51793;DHT22;37850;53.178;6.376;2023-09-18T03:40:42;17.00;99.90
51793;DHT22;37850;53.178;6.376;2023-09-18T03:43:10;17.00;99.90
51793;DHT22;37850;53.178;6.376;2023-09-18T03:45:37;17.00;99.90
51793;DHT22;37850;53.178;6.376;2023-09-18T03:48:04;17.00;99.90
51793;DHT22;37850;53.178;6.376;2023-09-18T03:50:30;17.00;99.90
51793;DHT22;37850;53.178;6.376;2023-09-18T03:52:56;17.00;99.90
51793;DHT22;37850;53.178;6.376;2023-09-18T03:55:21;17.00;99.90
51793;DHT22;37850;53.178;6.376;2023-09-18T03:57:47;17.10;99.90
51793;DHT22;37850;53.178;6.376;2023-09-18T04:00:14;17.00;99.90
51793;DHT22;37850;53.178;6.376;2023-09-18T04:02:40;17.10;99.90
51793;DHT22;37850;53.178;6.376;2023-09-18T04:05:06;17.10;99.90
51793;DHT22;37850;53.178;6.376;2023-09-18T04:07:32;17.10;99.90
51793;DHT22;37850;53.178;6.376;2023-09-18T04:09:58;17.10;99.90
51793;DHT22;37850;53.178;6.376;2023-09-18T04:12:24;17.10;99.90
51793;DHT22;37850;53.178;6.376;2023-09-18T04:14:51;17.10;99.90
51793;DHT22;37850;53.178;6.376;2023-09-18T04:17:16;17.10;99.90
51793;DHT22;37850;53.178;6.376;2023-09-18T04:19:45;17.10;99.90
51793;DHT22;37850;53.178;6.376;2023-09-18T04:22:12;17.10;99.90
51793;DHT22;37850;53.178;6.376;2023-09-18T04:24:38;17.10;99.90
51793;DHT22;37850;53.178;6.376;2023-09-18T04:27:04;17.10;99.90
51793;DHT22;37850;53.178;6.376;2023-09-18T04:29:30;17.10;99.90
51793;DHT22;37850;53.178;6.376;2023-09-18T04:31:56;17.10;99.90
51793;DHT22;37850;53.178;6.376;2023-09-18T04:34:23;17.20;99.90
51793;DHT22;37850;53.178;6.376;2023-09-18T04:36:49;17.20;99.90
51793;DHT22;37850;53.178;6.376;2023-09-18T04:39:14;17.10;99.90
51793;DHT22;37850;53.178;6.376;2023-09-18T04:41:41;17.10;99.90
51793;DHT22;37850;53.178;6.376;2023-09-18T04:44:07;17.10;99.90
51793;DHT22;37850;53.178;6.376;2023-09-18T04:46:33;17.10;99.90
51793;DHT22;37850;53.178;6.376;2023-09-18T04:49:00;17.20;99.90
51793;DHT22;37850;53.178;6.376;2023-09-18T04:51:26;17.10;99.90
51793;DHT22;37850;53.178;6.376;2023-09-18T04:53:52;17.10;99.90
51793;DHT22;37850;53.178;6.376;2023-09-18T04:56:18;17.10;99.90
51793;DHT22;37850;53.178;6.376;2023-09-18T04:58:43;17.10;99.90
51793;DHT22;37850;53.178;6.376;2023-09-18T05:01:09;17.20;99.90
51793;DHT22;37850;53.178;6.376;2023-09-18T05:03:37;17.20;99.90
51793;DHT22;37850;53.178;6.376;2023-09-18T05:06:03;17.20;99.90
51793;DHT22;37850;53.178;6.376;2023-09-18T05:08:29;17.20;99.90
51793;DHT22;37850;53.178;6.376;2023-09-18T05:10:55;17.20;99.90
51793;DHT22;37850;53.178;6.376;2023-09-18T05:13:21;17.20;99.90
51793;DHT22;37850;53.178;6.376;2023-09-18T05:15:47;17.20;99.90
51793;DHT22;37850;53.178;6.376;2023-09-18T05:18:13;17.20;99.90
51793;DHT22;37850;53.178;6.376;2023-09-18T05:20:40;17.30;99.90
51793;DHT22;37850;53.178;6.376;2023-09-18T05:23:05;17.30;99.90
51793;DHT22;37850;53.178;6.376;2023-09-18T05:25:32;17.30;99.90
51793;DHT22;37850;53.178;6.376;2023-09-18T05:27:59;17.30;99.90
51793;DHT22;37850;53.178;6.376;2023-09-18T05:30:30;17.30;99.90
51793;DHT22;37850;53.178;6.376;2023-09-18T05:32:58;17.30;99.90
51793;DHT22;37850;53.178;6.376;2023-09-18T05:35:35;17.30;99.90
51793;DHT22;37850;53.178;6.376;2023-09-18T05:38:05;17.30;99.90
51793;DHT22;37850;53.178;6.376;2023-09-18T05:40:31;17.40;99.90
51793;DHT22;37850;53.178;6.376;2023-09-18T05:42:57;17.40;99.90
51793;DHT22;37850;53.178;6.376;2023-09-18T05:45:24;17.40;99.90
51793;DHT22;37850;53.178;6.376;2023-09-18T05:47:50;17.40;99.90
51793;DHT22;37850;53.178;6.376;2023-09-18T05:50:16;17.40;99.90
51793;DHT22;37850;53.178;6.376;2023-09-18T05:52:43;17.40;99.90
51793;DHT22;37850;53.178;6.376;2023-09-18T05:55:09;17.40;99.90
51793;DHT22;37850;53.178;6.376;2023-09-18T05:57:36;17.40;99.90
51793;DHT22;37850;53.178;6.376;2023-09-18T06:00:02;17.50;99.90
51793;DHT22;37850;53.178;6.376;2023-09-18T06:02:28;17.50;99.90
51793;DHT22;37850;53.178;6.376;2023-09-18T06:05:01;17.50;99.90
51793;DHT22;37850;53.178;6.376;2023-09-18T06:07:27;17.50;99.90
51793;DHT22;37850;53.178;6.376;2023-09-18T06:09:53;17.60;99.90
51793;DHT22;37850;53.178;6.376;2023-09-18T06:12:19;17.60;99.90
51793;DHT22;37850;53.178;6.376;2023-09-18T06:14:46;17.60;99.90
51793;DHT22;37850;53.178;6.376;2023-09-18T06:17:14;17.60;99.90
51793;DHT22;37850;53.178;6.376;2023-09-18T06:19:41;17.70;99.90
51793;DHT22;37850;53.178;6.376;2023-09-18T06:22:06;17.70;99.90
51793;DHT22;37850;53.178;6.376;2023-09-18T06:24:34;17.70;99.90
51793;DHT22;37850;53.178;6.376;2023-09-18T06:27:00;17.70;99.90
51793;DHT22;37850;53.178;6.376;2023-09-18T06:29:26;17.70;99.90
51793;DHT22;37850;53.178;6.376;2023-09-18T06:31:52;17.70;99.90
51793;DHT22;37850;53.178;6.376;2023-09-18T06:34:17;17.80;99.90
51793;DHT22;37850;53.178;6.376;2023-09-18T06:36:43;17.80;99.90
51793;DHT22;37850;53.178;6.376;2023-09-18T06:39:09;17.80;99.90
51793;DHT22;37850;53.178;6.376;2023-09-18T06:41:35;17.90;99.90
51793;DHT22;37850;53.178;6.376;2023-09-18T06:44:01;17.90;99.90
51793;DHT22;37850;53.178;6.376;2023-09-18T06:46:29;18.00;99.90
51793;DHT22;37850;53.178;6.376;2023-09-18T06:48:56;18.00;99.90
51793;DHT22;37850;53.178;6.376;2023-09-18T06:51:23;18.00;99.90
51793;DHT22;37850;53.178;6.376;2023-09-18T06:53:49;18.00;99.90
51793;DHT22;37850;53.178;6.376;2023-09-18T06:56:14;18.00;99.90
51793;DHT22;37850;53.178;6.376;2023-09-18T06:58:40;18.10;99.90
51793;DHT22;37850;53.178;6.376;2023-09-18T07:01:06;18.10;99.90
51793;DHT22;37850;53.178;6.376;2023-09-18T07:03:33;18.10;99.90
51793;DHT22;37850;53.178;6.376;2023-09-18T07:06:00;18.10;99.90
51793;DHT22;37850;53.178;6.376;2023-09-18T07:08:26;18.10;99.90
51793;DHT22;37850;53.178;6.376;2023-09-18T07:10:52;18.10;99.90
51793;DHT22;37850;53.178;6.376;2023-09-18T07:13:18;18.20;99.90
51793;DHT22;37850;53.178;6.376;2023-09-18T07:15:44;18.20;99.90
51793;DHT22;37850;53.178;6.376;2023-09-18T07:18:10;18.20;99.90
51793;DHT22;37850;53.178;6.376;2023-09-18T07:20:43;18.20;99.90
51793;DHT22;37850;53.178;6.376;2023-09-18T07:23:09;18.20;99.90
51793;DHT22;37850;53.178;6.376;2023-09-18T07:25:35;18.20;99.90
51793;DHT22;37850;53.178;6.376;2023-09-18T07:28:06;18.30;99.90
51793;DHT22;37850;53.178;6.376;2023-09-18T07:30:31;18.30;99.90
51793;DHT22;37850;53.178;6.376;2023-09-18T07:32:57;18.30;99.90
51793;DHT22;37850;53.178;6.376;2023-09-18T07:35:26;18.30;99.90
51793;DHT22;37850;53.178;6.376;2023-09-18T07:37:52;18.40;99.90
51793;DHT22;37850;53.178;6.376;2023-09-18T07:40:21;18.40;99.90
51793;DHT22;37850;53.178;6.376;2023-09-18T07:42:47;18.40;99.90
51793;DHT22;37850;53.178;6.376;2023-09-18T07:45:13;18.40;99.90
51793;DHT22;37850;53.178;6.376;2023-09-18T07:47:39;18.40;99.90
51793;DHT22;37850;53.178;6.376;2023-09-18T07:50:05;18.40;99.90
51793;DHT22;37850;53.178;6.376;2023-09-18T07:52:32;18.40;99.90
51793;DHT22;37850;53.178;6.376;2023-09-18T07:54:58;18.40;99.90
51793;DHT22;37850;53.178;6.376;2023-09-18T07:57:25;18.40;99.90
51793;DHT22;37850;53.178;6.376;2023-09-18T07:59:53;18.40;99.90
51793;DHT22;37850;53.178;6.376;2023-09-18T08:02:19;18.40;99.90
51793;DHT22;37850;53.178;6.376;2023-09-18T08:04:47;18.40;99.90
51793;DHT22;37850;53.178;6.376;2023-09-18T08:07:13;18.40;99.90
51793;DHT22;37850;53.178;6.376;2023-09-18T08:09:39;18.40;99.90
51793;DHT22;37850;53.178;6.376;2023-09-18T08:12:06;18.40;99.90
51793;DHT22;37850;53.178;6.376;2023-09-18T08:14:32;18.40;99.90
51793;DHT22;37850;53.178;6.376;2023-09-18T08:17:01;18.40;99.90
51793;DHT22;37850;53.178;6.376;2023-09-18T08:19:27;18.50;99.90
51793;DHT22;37850;53.178;6.376;2023-09-18T08:21:53;18.50;99.90
51793;DHT22;37850;53.178;6.376;2023-09-18T08:24:20;18.50;99.90
51793;DHT22;37850;53.178;6.376;2023-09-18T08:26:46;18.50;99.90
51793;DHT22;37850;53.178;6.376;2023-09-18T08:29:12;18.50;99.90
51793;DHT22;37850;53.178;6.376;2023-09-18T08:31:38;18.50;99.90
51793;DHT22;37850;53.178;6.376;2023-09-18T08:34:04;18.50;99.90
51793;DHT22;37850;53.178;6.376;2023-09-18T08:36:30;18.50;99.90
51793;DHT22;37850;53.178;6.376;2023-09-18T08:38:57;18.50;99.90
51793;DHT22;37850;53.178;6.376;2023-09-18T08:41:24;18.50;99.90
51793;DHT22;37850;53.178;6.376;2023-09-18T08:43:56;18.50;99.90
51793;DHT22;37850;53.178;6.376;2023-09-18T08:46:25;18.60;99.90
51793;DHT22;37850;53.178;6.376;2023-09-18T08:48:51;18.50;99.90
51793;DHT22;37850;53.178;6.376;2023-09-18T08:51:18;18.60;99.90
51793;DHT22;37850;53.178;6.376;2023-09-18T08:53:44;18.60;99.90
51793;DHT22;37850;53.178;6.376;2023-09-18T08:56:12;18.60;99.90
51793;DHT22;37850;53.178;6.376;2023-09-18T08:58:39;18.70;99.90
51793;DHT22;37850;53.178;6.376;2023-09-18T09:01:11;18.70;99.90
51793;DHT22;37850;53.178;6.376;2023-09-18T09:03:38;18.70;99.90
51793;DHT22;37850;53.178;6.376;2023-09-18T09:06:06;18.70;99.90
51793;DHT22;37850;53.178;6.376;2023-09-18T09:08:33;18.70;99.90
51793;DHT22;37850;53.178;6.376;2023-09-18T09:10:59;18.70;99.90
51793;DHT22;37850;53.178;6.376;2023-09-18T09:13:25;18.70;99.90
51793;DHT22;37850;53.178;6.376;2023-09-18T09:15:56;18.80;99.90
51793;DHT22;37850;53.178;6.376;2023-09-18T09:18:27;18.80;99.90
51793;DHT22;37850;53.178;6.376;2023-09-18T09:21:00;18.80;99.90
51793;DHT22;37850;53.178;6.376;2023-09-18T09:23:28;18.80;99.90
51793;DHT22;37850;53.178;6.376;2023-09-18T09:26:11;18.90;99.90
51793;DHT22;37850;53.178;6.376;2023-09-18T09:28:38;18.90;99.90
51793;DHT22;37850;53.178;6.376;2023-09-18T09:31:03;18.90;99.90
51793;DHT22;37850;53.178;6.376;2023-09-18T09:33:30;18.90;99.90
51793;DHT22;37850;53.178;6.376;2023-09-18T09:35:56;19.00;99.90
51793;DHT22;37850;53.178;6.376;2023-09-18T09:38:30;19.00;99.90
51793;DHT22;37850;53.178;6.376;2023-09-18T09:41:03;19.10;99.90
51793;DHT22;37850;53.178;6.376;2023-09-18T09:43:32;19.10;99.90
51793;DHT22;37850;53.178;6.376;2023-09-18T09:45:59;19.10;99.90
51793;DHT22;37850;53.178;6.376;2023-09-18T09:48:26;19.10;99.90
51793;DHT22;37850;53.178;6.376;2023-09-18T09:50:52;19.20;99.90
51793;DHT22;37850;53.178;6.376;2023-09-18T09:53:18;19.20;99.90
51793;DHT22;37850;53.178;6.376;2023-09-18T09:55:44;19.20;99.90
51793;DHT22;37850;53.178;6.376;2023-09-18T09:58:11;19.30;99.90
51793;DHT22;37850;53.178;6.376;2023-09-18T10:00:45;19.30;99.90
51793;DHT22;37850;53.178;6.376;2023-09-18T10:03:15;19.30;99.90
51793;DHT22;37850;53.178;6.376;2023-09-18T10:05:43;19.30;99.90
51793;DHT22;37850;53.178;6.376;2023-09-18T10:08:16;19.30;99.90
51793;DHT22;37850;53.178;6.376;2023-09-18T10:11:05;19.40;99.90
51793;DHT22;37850;53.178;6.376;2023-09-18T10:13:40;19.40;99.90
51793;DHT22;37850;53.178;6.376;2023-09-18T10:16:07;19.50;99.90
51793;DHT22;37850;53.178;6.376;2023-09-18T10:18:39;19.50;99.90
51793;DHT22;37850;53.178;6.376;2023-09-18T10:23:59;19.60;99.90
51793;DHT22;37850;53.178;6.376;2023-09-18T10:26:28;19.70;99.90
51793;DHT22;37850;53.178;6.376;2023-09-18T10:28:56;19.70;99.90
51793;DHT22;37850;53.178;6.376;2023-09-18T10:31:28;19.80;99.90
51793;DHT22;37850;53.178;6.376;2023-09-18T10:33:57;19.80;99.90
51793;DHT22;37850;53.178;6.376;2023-09-18T10:36:25;19.80;99.90
51793;DHT22;37850;53.178;6.376;2023-09-18T10:38:52;19.80;99.90
51793;DHT22;37850;53.178;6.376;2023-09-18T10:41:21;19.80;99.90
51793;DHT22;37850;53.178;6.376;2023-09-18T10:43:46;19.80;99.90
51793;DHT22;37850;53.178;6.376;2023-09-18T10:46:14;19.90;99.90
51793;DHT22;37850;53.178;6.376;2023-09-18T10:48:42;20.00;99.90
51793;DHT22;37850;53.178;6.376;2023-09-18T10:51:10;20.00;99.90
51793;DHT22;37850;53.178;6.376;2023-09-18T10:53:36;20.10;99.90
51793;DHT22;37850;53.178;6.376;2023-09-18T10:56:02;20.10;99.90
51793;DHT22;37850;53.178;6.376;2023-09-18T10:58:32;20.20;99.90
51793;DHT22;37850;53.178;6.376;2023-09-18T11:01:02;20.40;99.90
51793;DHT22;37850;53.178;6.376;2023-09-18T11:03:33;20.40;99.90
51793;DHT22;37850;53.178;6.376;2023-09-18T11:06:07;20.50;99.90
51793;DHT22;37850;53.178;6.376;2023-09-18T11:08:36;20.50;99.90
51793;DHT22;37850;53.178;6.376;2023-09-18T11:11:10;20.50;99.90
51793;DHT22;37850;53.178;6.376;2023-09-18T11:13:43;20.50;99.90
51793;DHT22;37850;53.178;6.376;2023-09-18T11:19:04;20.60;99.90
51793;DHT22;37850;53.178;6.376;2023-09-18T11:21:33;20.60;99.90
51793;DHT22;37850;53.178;6.376;2023-09-18T11:24:00;20.70;99.90
51793;DHT22;37850;53.178;6.376;2023-09-18T11:26:35;20.80;99.90
51793;DHT22;37850;53.178;6.376;2023-09-18T11:29:05;20.80;99.90
51793;DHT22;37850;53.178;6.376;2023-09-18T11:31:57;20.80;99.90
51793;DHT22;37850;53.178;6.376;2023-09-18T11:34:27;20.90;99.90
51793;DHT22;37850;53.178;6.376;2023-09-18T11:37:00;20.90;99.90
51793;DHT22;37850;53.178;6.376;2023-09-18T11:39:39;20.90;99.90
51793;DHT22;37850;53.178;6.376;2023-09-18T11:42:19;20.90;99.90
51793;DHT22;37850;53.178;6.376;2023-09-18T11:44:48;20.90;99.90
51793;DHT22;37850;53.178;6.376;2023-09-18T11:47:19;20.90;99.90
51793;DHT22;37850;53.178;6.376;2023-09-18T11:49:57;21.00;99.90
51793;DHT22;37850;53.178;6.376;2023-09-18T11:52:28;21.00;99.90
51793;DHT22;37850;53.178;6.376;2023-09-18T11:54:56;21.10;99.90
51793;DHT22;37850;53.178;6.376;2023-09-18T11:57:22;21.20;99.90
51793;DHT22;37850;53.178;6.376;2023-09-18T11:59:48;21.30;99.90
51793;DHT22;37850;53.178;6.376;2023-09-18T12:02:31;21.30;99.90
51793;DHT22;37850;53.178;6.376;2023-09-18T12:05:14;21.30;99.90
51793;DHT22;37850;53.178;6.376;2023-09-18T12:07:43;21.30;99.90
51793;DHT22;37850;53.178;6.376;2023-09-18T12:10:14;21.30;99.90
51793;DHT22;37850;53.178;6.376;2023-09-18T12:12:45;21.40;99.90
51793;DHT22;37850;53.178;6.376;2023-09-18T12:15:11;21.40;99.90
51793;DHT22;37850;53.178;6.376;2023-09-18T12:17:37;21.40;99.90
51793;DHT22;37850;53.178;6.376;2023-09-18T12:20:03;21.50;99.90
51793;DHT22;37850;53.178;6.376;2023-09-18T12:22:31;21.40;99.90
51793;DHT22;37850;53.178;6.376;2023-09-18T12:25:12;21.40;99.90
51793;DHT22;37850;53.178;6.376;2023-09-18T12:27:40;21.40;99.90
51793;DHT22;37850;53.178;6.376;2023-09-18T12:30:06;21.40;99.90
51793;DHT22;37850;53.178;6.376;2023-09-18T12:32:36;21.40;99.90
51793;DHT22;37850;53.178;6.376;2023-09-18T12:35:02;21.50;99.90
51793;DHT22;37850;53.178;6.376;2023-09-18T12:37:33;21.50;99.90
51793;DHT22;37850;53.178;6.376;2023-09-18T12:39:59;21.50;99.90
51793;DHT22;37850;53.178;6.376;2023-09-18T12:42:25;21.50;99.90
51793;DHT22;37850;53.178;6.376;2023-09-18T12:44:52;21.50;99.90
51793;DHT22;37850;53.178;6.376;2023-09-18T12:47:20;21.50;99.90
51793;DHT22;37850;53.178;6.376;2023-09-18T12:49:46;21.50;99.90
51793;DHT22;37850;53.178;6.376;2023-09-18T12:52:12;21.50;99.90
51793;DHT22;37850;53.178;6.376;2023-09-18T12:54:40;21.40;99.90
51793;DHT22;37850;53.178;6.376;2023-09-18T12:57:07;21.40;99.90
51793;DHT22;37850;53.178;6.376;2023-09-18T12:59:34;21.40;99.90
51793;DHT22;37850;53.178;6.376;2023-09-18T13:02:05;21.40;99.90
51793;DHT22;37850;53.178;6.376;2023-09-18T13:04:35;21.40;99.90
51793;DHT22;37850;53.178;6.376;2023-09-18T13:07:14;21.40;99.90
51793;DHT22;37850;53.178;6.376;2023-09-18T13:09:41;21.50;99.90
51793;DHT22;37850;53.178;6.376;2023-09-18T13:12:07;21.50;99.90
51793;DHT22;37850;53.178;6.376;2023-09-18T13:15:02;21.60;99.90
51793;DHT22;37850;53.178;6.376;2023-09-18T13:17:57;21.60;99.90
51793;DHT22;37850;53.178;6.376;2023-09-18T13:20:28;21.70;99.90
51793;DHT22;37850;53.178;6.376;2023-09-18T13:22:55;21.70;99.90
51793;DHT22;37850;53.178;6.376;2023-09-18T13:25:26;21.80;99.90
51793;DHT22;37850;53.178;6.376;2023-09-18T13:27:53;21.80;99.90
51793;DHT22;37850;53.178;6.376;2023-09-18T13:30:19;21.80;99.90
51793;DHT22;37850;53.178;6.376;2023-09-18T13:32:48;21.60;99.90
51793;DHT22;37850;53.178;6.376;2023-09-18T13:35:15;21.60;99.90
51793;DHT22;37850;53.178;6.376;2023-09-18T13:37:41;21.50;99.90
51793;DHT22;37850;53.178;6.376;2023-09-18T13:40:08;21.60;99.90
51793;DHT22;37850;53.178;6.376;2023-09-18T13:42:38;21.60;99.90
51793;DHT22;37850;53.178;6.376;2023-09-18T13:45:07;21.60;99.90
51793;DHT22;37850;53.178;6.376;2023-09-18T13:47:34;21.70;99.90
51793;DHT22;37850;53.178;6.376;2023-09-18T13:50:01;21.70;99.90
51793;DHT22;37850;53.178;6.376;2023-09-18T13:52:29;21.80;99.90
51793;DHT22;37850;53.178;6.376;2023-09-18T13:54:55;21.80;99.90
51793;DHT22;37850;53.178;6.376;2023-09-18T13:57:21;21.80;99.90
51793;DHT22;37850;53.178;6.376;2023-09-18T13:59:48;21.80;99.90
51793;DHT22;37850;53.178;6.376;2023-09-18T14:02:15;21.80;99.90
51793;DHT22;37850;53.178;6.376;2023-09-18T14:04:41;21.80;99.90
51793;DHT22;37850;53.178;6.376;2023-09-18T14:07:08;21.80;99.90
51793;DHT22;37850;53.178;6.376;2023-09-18T14:09:35;21.70;99.90
51793;DHT22;37850;53.178;6.376;2023-09-18T14:12:01;21.70;99.90
51793;DHT22;37850;53.178;6.376;2023-09-18T14:14:28;21.70;99.90
51793;DHT22;37850;53.178;6.376;2023-09-18T14:16:54;21.70;99.90
51793;DHT22;37850;53.178;6.376;2023-09-18T14:19:20;21.80;99.90
51793;DHT22;37850;53.178;6.376;2023-09-18T14:21:46;21.80;99.90
51793;DHT22;37850;53.178;6.376;2023-09-18T14:24:12;21.80;99.90
51793;DHT22;37850;53.178;6.376;2023-09-18T14:26:38;21.80;99.90
51793;DHT22;37850;53.178;6.376;2023-09-18T14:29:10;21.80;99.90
51793;DHT22;37850;53.178;6.376;2023-09-18T14:31:37;21.80;99.90
51793;DHT22;37850;53.178;6.376;2023-09-18T14:34:03;21.80;99.90
51793;DHT22;37850;53.178;6.376;2023-09-18T14:36:31;21.80;99.90
51793;DHT22;37850;53.178;6.376;2023-09-18T14:39:00;21.80;99.90
51793;DHT22;37850;53.178;6.376;2023-09-18T14:41:29;21.80;99.90
51793;DHT22;37850;53.178;6.376;2023-09-18T14:43:57;21.70;99.90
51793;DHT22;37850;53.178;6.376;2023-09-18T14:46:24;21.70;99.90
51793;DHT22;37850;53.178;6.376;2023-09-18T14:48:50;21.70;99.90
51793;DHT22;37850;53.178;6.376;2023-09-18T14:51:16;21.70;99.90
51793;DHT22;37850;53.178;6.376;2023-09-18T14:53:45;21.70;99.90
51793;DHT22;37850;53.178;6.376;2023-09-18T14:56:11;21.70;99.90
51793;DHT22;37850;53.178;6.376;2023-09-18T14:58:37;21.70;99.90
51793;DHT22;37850;53.178;6.376;2023-09-18T15:01:03;21.80;99.90
51793;DHT22;37850;53.178;6.376;2023-09-18T15:03:28;21.70;99.90
51793;DHT22;37850;53.178;6.376;2023-09-18T15:05:54;21.80;99.90
51793;DHT22;37850;53.178;6.376;2023-09-18T15:08:21;21.80;99.90
51793;DHT22;37850;53.178;6.376;2023-09-18T15:10:47;21.80;99.90
51793;DHT22;37850;53.178;6.376;2023-09-18T15:13:13;21.80;99.90
51793;DHT22;37850;53.178;6.376;2023-09-18T15:15:41;21.80;99.90
51793;DHT22;37850;53.178;6.376;2023-09-18T15:18:08;21.80;99.90
51793;DHT22;37850;53.178;6.376;2023-09-18T15:20:34;21.80;99.90
51793;DHT22;37850;53.178;6.376;2023-09-18T15:23:00;21.80;99.90
51793;DHT22;37850;53.178;6.376;2023-09-18T15:25:26;21.80;99.90
51793;DHT22;37850;53.178;6.376;2023-09-18T15:27:52;21.80;99.90
51793;DHT22;37850;53.178;6.376;2023-09-18T15:30:18;21.80;99.90
51793;DHT22;37850;53.178;6.376;2023-09-18T15:32:52;21.80;99.90
51793;DHT22;37850;53.178;6.376;2023-09-18T15:35:25;21.80;99.90
51793;DHT22;37850;53.178;6.376;2023-09-18T15:37:52;21.80;99.90
51793;DHT22;37850;53.178;6.376;2023-09-18T15:40:19;21.80;99.90